Карточка аэропорта UHMA

Внимание!
Информация на этой странице в стадии наполнения.
Если вы не увидели какой-то информации, или заметили неточность - пожалуйста сообщите нам!
Спасибо!
Команда RU-STAFF
Название аэропортаУгольный
Название аэропорта (англ.)Ugolny
Превышение194 ft. (59.1 m.)
Координаты64°44.1', 177°44.28'
Высота перехода1600m
Эшелон переходаQFE>=755mm:FL070; QFE<755=>728:FL080; QFE<728:FL090
Коды ответчика6501-6537
Зона ОрВДМагадан РПИ (UHMM)
Данные METARUHMA 241900Z 13007MPS 100V160 9999 FEW012 SCT039CB 07/03 Q1009 R02/////// NOSIG RMK MID 13007G10MPS END R02/12007MPS MT OBSC QFE753/1004
Проноз погоды (TAF)UHMA 241650Z 2418/2518 12007MPS 9999 SCT033 TEMPO 2418/2518 10012G17MPS 5000 -SHRA SCT003 BKN015CB
NOTAMshow/hide NOTAM
AWOS   TABLE

Информация о ВПП


Диспетчерские позиции

Позывной Наименование органа УВД Частота
UHMA_APPАнадырь-Подход124.0
UHMA_TWRАнадырь-Старт124.0



Спутниковое изображение